Time;durP1;ratioP1;P1;durP2;ratioP2;P2;SDS_P1;SDS_P2;PMS_P1;PMS_P2;Temp;Humidity;BMP_temperature;BMP_pressure;BME280_temperature;BME280_humidity;BME280_pressure;Samples;Min_cycle;Max_cycle;Signal;HPM_P1;HPM_P2
2023/11/19 00:00:52;;;;;;;11.00;7.57;;;23.10;43.80;;;;;;6177886;28;81129;-64
2023/11/19 00:03:53;;;;;;;9.48;6.72;;;23.10;43.90;;;;;;6177176;28;81204;-63
2023/11/19 00:06:53;;;;;;;9.07;6.90;;;23.10;44.10;;;;;;6189502;28;80865;-65
2023/11/19 00:09:55;;;;;;;9.02;6.82;;;23.10;44.20;;;;;;6179316;28;80460;-63
2023/11/19 00:12:56;;;;;;;10.45;7.05;;;23.10;44.30;;;;;;6200190;28;80695;-63
2023/11/19 00:15:57;;;;;;;10.45;6.68;;;23.10;44.30;;;;;;6190984;28;81337;-63
2023/11/19 00:18:57;;;;;;;10.13;7.47;;;23.10;44.50;;;;;;6189836;28;80707;-63
2023/11/19 00:22:02;;;;;;;9.55;6.43;;;23.10;44.70;;;;;;6198892;28;80952;-63
2023/11/19 00:25:03;;;;;;;10.82;6.97;;;23.10;44.50;;;;;;6196870;28;80244;-64
2023/11/19 00:28:04;;;;;;;9.60;6.80;;;23.10;44.50;;;;;;6181263;28;80390;-64
2023/11/19 00:31:04;;;;;;;11.10;7.72;;;23.10;44.70;;;;;;6188991;28;80395;-63
2023/11/19 00:34:06;;;;;;;9.75;7.03;;;23.10;44.80;;;;;;6176246;28;80187;-65
2023/11/19 00:37:06;;;;;;;11.50;7.50;;;23.10;44.80;;;;;;6176573;28;80944;-63
2023/11/19 00:40:07;;;;;;;12.00;7.28;;;23.10;44.70;;;;;;6163935;28;81877;-65
2023/11/19 00:43:08;;;;;;;10.23;7.70;;;23.10;44.40;;;;;;6175885;28;81074;-65
2023/11/19 00:46:10;;;;;;;9.43;6.88;;;23.10;44.50;;;;;;6174904;28;81801;-65
2023/11/19 00:49:11;;;;;;;9.65;7.53;;;23.10;44.40;;;;;;6190318;28;80412;-64
2023/11/19 00:52:13;;;;;;;11.85;7.38;;;23.10;44.40;;;;;;6172571;28;82330;-65
2023/11/19 00:55:13;;;;;;;9.52;6.95;;;23.10;44.30;;;;;;6173900;28;83158;-65
2023/11/19 00:58:14;;;;;;;11.85;7.25;;;23.10;44.30;;;;;;6195796;28;82943;-65
2023/11/19 01:01:15;;;;;;;10.50;6.93;;;23.10;44.20;;;;;;6179940;28;80370;-66
2023/11/19 01:04:15;;;;;;;10.48;7.05;;;23.10;44.20;;;;;;6176032;28;80752;-65
2023/11/19 01:07:16;;;;;;;12.02;7.80;;;23.10;44.20;;;;;;6187402;28;81414;-63
2023/11/19 01:10:18;;;;;;;11.25;7.45;;;23.10;44.10;;;;;;6176264;28;80545;-64
2023/11/19 01:13:19;;;;;;;11.75;7.88;;;23.10;44.30;;;;;;6169400;28;80518;-65
2023/11/19 01:16:19;;;;;;;11.80;7.55;;;23.10;44.20;;;;;;6149535;28;80417;-65
2023/11/19 01:19:20;;;;;;;11.45;7.45;;;23.10;44.20;;;;;;6155837;28;81757;-65
2023/11/19 01:22:21;;;;;;;11.82;7.82;;;23.10;44.00;;;;;;6176879;28;80798;-62
2023/11/19 01:25:21;;;;;;;10.57;7.18;;;23.10;44.10;;;;;;6174795;28;81125;-64
2023/11/19 01:28:22;;;;;;;12.40;7.15;;;23.10;44.20;;;;;;6174626;28;80440;-64
2023/11/19 01:31:22;;;;;;;11.18;6.80;;;23.10;44.30;;;;;;6175258;28;83293;-68
2023/11/19 01:34:23;;;;;;;9.63;6.95;;;23.10;44.30;;;;;;6180875;28;80418;-65
2023/11/19 01:37:23;;;;;;;8.13;6.45;;;23.10;44.20;;;;;;6189545;28;83246;-65
2023/11/19 01:40:24;;;;;;;12.05;7.40;;;23.10;44.40;;;;;;6154075;28;82787;-63
2023/11/19 01:43:24;;;;;;;10.52;7.38;;;23.10;44.30;;;;;;6172159;28;80930;-64
2023/11/19 01:46:25;;;;;;;9.00;6.28;;;23.10;44.10;;;;;;6172378;28;80433;-64
2023/11/19 01:49:26;;;;;;;12.82;7.82;;;23.10;43.90;;;;;;6175307;28;80761;-64
2023/11/19 01:52:26;;;;;;;12.23;7.82;;;23.10;43.70;;;;;;6162185;28;81525;-65
2023/11/19 01:55:28;;;;;;;10.60;7.22;;;23.10;43.70;;;;;;6176248;28;80490;-65
2023/11/19 01:58:29;;;;;;;9.05;7.20;;;23.10;43.60;;;;;;6182304;28;81131;-62
2023/11/19 02:01:32;;;;;;;11.93;7.53;;;23.10;43.60;;;;;;6190394;28;82594;-63
2023/11/19 02:04:32;;;;;;;10.85;7.50;;;23.00;43.60;;;;;;6201564;28;80584;-63
2023/11/19 02:07:33;;;;;;;11.05;7.68;;;23.00;43.60;;;;;;6192645;28;81841;-63
2023/11/19 02:10:33;;;;;;;12.70;7.57;;;23.00;43.60;;;;;;6174197;28;83392;-64
2023/11/19 02:13:37;;;;;;;9.90;6.95;;;23.00;43.50;;;;;;6169977;28;81262;-65
2023/11/19 02:16:38;;;;;;;10.40;7.63;;;23.00;43.50;;;;;;6174443;28;83166;-64
2023/11/19 02:19:38;;;;;;;12.63;7.45;;;23.00;43.60;;;;;;6176291;28;82245;-65
2023/11/19 02:22:39;;;;;;;10.07;7.15;;;23.00;43.50;;;;;;6184444;28;83465;-64
2023/11/19 02:25:40;;;;;;;10.80;7.70;;;23.00;43.50;;;;;;6186646;28;83308;-64
2023/11/19 02:28:40;;;;;;;10.88;7.28;;;23.00;43.40;;;;;;6187439;28;80089;-64
2023/11/19 02:31:41;;;;;;;10.30;7.15;;;23.00;43.30;;;;;;6178099;28;80528;-65
2023/11/19 02:34:41;;;;;;;9.98;7.07;;;23.00;43.40;;;;;;6178633;28;80730;-64
2023/11/19 02:37:42;;;;;;;11.48;8.15;;;23.00;43.40;;;;;;6178230;28;81074;-63
2023/11/19 02:40:43;;;;;;;9.32;7.10;;;23.00;43.20;;;;;;6178085;28;80463;-63
2023/11/19 02:43:43;;;;;;;10.80;7.07;;;23.00;43.40;;;;;;6178403;28;80386;-64
2023/11/19 02:46:44;;;;;;;10.70;7.75;;;23.00;43.40;;;;;;6178856;28;81032;-65
2023/11/19 02:49:46;;;;;;;10.32;7.43;;;23.00;43.30;;;;;;6176887;28;81669;-64
2023/11/19 02:52:46;;;;;;;10.30;7.10;;;23.00;43.30;;;;;;6178852;28;80504;-62
2023/11/19 02:55:49;;;;;;;9.40;6.78;;;23.00;43.40;;;;;;6176696;28;80924;-62
2023/11/19 02:58:51;;;;;;;10.52;7.68;;;23.00;43.40;;;;;;6178117;28;80471;-62
2023/11/19 03:01:52;;;;;;;12.52;7.75;;;23.00;43.40;;;;;;6176089;28;83644;-61
2023/11/19 03:04:52;;;;;;;9.23;7.05;;;23.00;43.40;;;;;;6178073;28;82249;-62
2023/11/19 03:07:53;;;;;;;9.32;6.97;;;23.00;43.30;;;;;;6176966;28;80799;-62
2023/11/19 03:10:53;;;;;;;11.25;8.35;;;23.00;43.30;;;;;;6178530;28;81552;-63
2023/11/19 03:13:54;;;;;;;9.65;6.50;;;23.00;43.40;;;;;;6177681;28;81119;-63
2023/11/19 03:16:54;;;;;;;8.60;7.03;;;23.00;43.40;;;;;;6176542;28;80383;-64
2023/11/19 03:19:55;;;;;;;10.70;7.55;;;23.00;43.30;;;;;;6177268;28;83951;-65
2023/11/19 03:22:57;;;;;;;9.95;7.53;;;23.00;43.50;;;;;;6177239;28;80724;-65
2023/11/19 03:25:58;;;;;;;9.10;7.03;;;23.00;43.40;;;;;;6176573;28;83326;-65
2023/11/19 03:28:58;;;;;;;11.43;6.90;;;23.00;43.40;;;;;;6176409;28;80763;-65
2023/11/19 03:31:59;;;;;;;10.43;7.32;;;23.00;43.40;;;;;;6176757;28;83483;-65
2023/11/19 03:34:59;;;;;;;11.25;7.45;;;23.00;43.40;;;;;;6177897;28;81999;-64
2023/11/19 03:38:01;;;;;;;9.52;7.28;;;22.90;43.50;;;;;;6177087;28;80334;-64
2023/11/19 03:41:01;;;;;;;10.57;7.65;;;23.00;43.40;;;;;;6178076;28;80478;-65
2023/11/19 03:44:02;;;;;;;10.60;7.78;;;23.00;43.40;;;;;;6178078;28;80576;-64
2023/11/19 03:47:02;;;;;;;11.43;8.25;;;23.00;43.40;;;;;;6177661;28;80766;-64
2023/11/19 03:50:03;;;;;;;12.23;8.90;;;23.00;43.40;;;;;;6176661;28;80175;-65
2023/11/19 03:53:04;;;;;;;10.60;7.28;;;23.00;43.30;;;;;;6177348;28;81453;-65
2023/11/19 03:56:05;;;;;;;12.27;8.20;;;23.00;43.30;;;;;;6176600;28;80392;-66
2023/11/19 03:59:05;;;;;;;14.00;8.30;;;23.00;43.20;;;;;;6177510;28;80412;-65
2023/11/19 04:02:06;;;;;;;11.45;7.63;;;23.00;43.20;;;;;;6175031;28;81617;-65
2023/11/19 04:05:06;;;;;;;12.68;8.60;;;23.00;43.30;;;;;;6176271;28;80508;-64
2023/11/19 04:08:07;;;;;;;12.88;8.02;;;23.00;43.20;;;;;;6175827;28;80644;-63
2023/11/19 04:11:08;;;;;;;14.88;8.40;;;22.90;43.20;;;;;;6175962;28;80509;-64
2023/11/19 04:14:09;;;;;;;12.10;7.90;;;23.00;43.20;;;;;;6176477;28;81533;-65
2023/11/19 04:17:10;;;;;;;13.75;8.13;;;23.00;43.10;;;;;;6176081;28;80133;-64
2023/11/19 04:20:13;;;;;;;12.13;8.68;;;23.00;42.60;;;;;;6175853;28;80213;-64
2023/11/19 04:23:13;;;;;;;11.68;8.38;;;23.00;42.70;;;;;;6175057;28;83732;-68
2023/11/19 04:26:14;;;;;;;12.07;8.27;;;23.00;43.30;;;;;;6176959;28;80984;-67
2023/11/19 04:29:15;;;;;;;12.18;8.40;;;23.00;43.20;;;;;;6175441;28;82976;-64
2023/11/19 04:32:15;;;;;;;11.80;7.97;;;23.00;42.60;;;;;;6175376;28;80520;-66
2023/11/19 04:35:16;;;;;;;14.60;8.93;;;23.00;42.40;;;;;;6176920;28;80110;-66
2023/11/19 04:38:17;;;;;;;11.73;8.10;;;23.00;42.10;;;;;;6177207;28;80350;-66
2023/11/19 04:41:17;;;;;;;10.30;7.80;;;23.10;42.40;;;;;;6176410;28;81286;-65
2023/11/19 04:44:18;;;;;;;12.88;8.45;;;23.10;42.00;;;;;;6175959;28;82574;-61
2023/11/19 04:47:18;;;;;;;11.77;8.02;;;23.10;42.20;;;;;;6175557;28;87202;-62
2023/11/19 04:50:19;;;;;;;12.30;8.27;;;23.10;42.20;;;;;;6172527;28;81333;-63
2023/11/19 04:53:19;;;;;;;13.27;8.93;;;23.20;42.10;;;;;;6175809;28;81107;-62
2023/11/19 04:56:22;;;;;;;11.32;7.75;;;23.20;42.40;;;;;;6175341;28;80341;-62
2023/11/19 04:59:22;;;;;;;13.27;8.85;;;23.20;42.20;;;;;;6175768;28;80965;-63
2023/11/19 05:02:23;;;;;;;12.88;8.43;;;23.20;42.10;;;;;;6175127;28;80143;-64
2023/11/19 05:05:23;;;;;;;14.63;8.43;;;23.20;42.10;;;;;;6176016;28;80451;-63
2023/11/19 05:08:24;;;;;;;11.55;8.70;;;23.20;42.30;;;;;;6174972;28;80423;-65
2023/11/19 05:11:24;;;;;;;12.43;8.65;;;23.20;42.00;;;;;;6174921;28;82575;-65
2023/11/19 05:14:25;;;;;;;10.40;7.70;;;23.20;42.20;;;;;;6176180;28;80850;-64
2023/11/19 05:17:25;;;;;;;11.02;8.00;;;23.30;42.30;;;;;;6175870;28;80493;-63
2023/11/19 05:20:26;;;;;;;12.55;7.55;;;23.30;42.30;;;;;;6175661;28;80350;-64
2023/11/19 05:23:26;;;;;;;10.63;7.47;;;23.30;42.50;;;;;;6175302;28;80433;-65
2023/11/19 05:26:27;;;;;;;11.93;7.22;;;23.30;42.30;;;;;;6175049;28;80633;-64
2023/11/19 05:29:27;;;;;;;13.07;8.93;;;23.30;42.30;;;;;;6176560;28;80761;-64
2023/11/19 05:32:28;;;;;;;11.13;8.25;;;23.30;42.30;;;;;;6179500;28;80583;-65
2023/11/19 05:35:28;;;;;;;12.45;7.97;;;23.30;42.20;;;;;;6179350;28;80841;-67
2023/11/19 05:38:29;;;;;;;14.05;8.52;;;23.30;42.80;;;;;;6178285;28;82473;-66
2023/11/19 05:41:29;;;;;;;12.07;8.13;;;23.30;42.30;;;;;;6178664;28;84442;-66
2023/11/19 05:44:30;;;;;;;12.23;8.80;;;23.30;41.90;;;;;;6179819;28;80365;-65
2023/11/19 05:47:30;;;;;;;10.57;7.75;;;23.30;41.90;;;;;;6180667;28;80737;-65
2023/11/19 05:50:31;;;;;;;13.38;8.68;;;23.30;41.70;;;;;;6178835;28;80510;-64
2023/11/19 05:53:31;;;;;;;13.95;8.98;;;23.30;41.90;;;;;;6179587;28;80992;-65
2023/11/19 05:56:32;;;;;;;12.00;8.23;;;23.30;41.90;;;;;;6165853;28;80586;-67
2023/11/19 05:59:33;;;;;;;13.02;9.23;;;23.30;41.80;;;;;;6179875;28;80158;-67
2023/11/19 06:02:33;;;;;;;15.43;8.75;;;23.40;42.20;;;;;;6169908;28;82974;-64
2023/11/19 06:05:34;;;;;;;12.23;8.52;;;23.30;42.40;;;;;;6151098;28;80711;-65
2023/11/19 06:08:34;;;;;;;12.82;8.85;;;23.30;42.40;;;;;;6168566;28;85888;-66
2023/11/19 06:11:35;;;;;;;12.48;8.77;;;23.30;42.40;;;;;;6163557;28;81924;-66
2023/11/19 06:14:36;;;;;;;13.93;8.43;;;23.30;42.40;;;;;;6167907;28;84822;-65
2023/11/19 06:17:36;;;;;;;16.05;9.38;;;23.30;42.40;;;;;;6175598;28;81343;-62
2023/11/19 06:20:37;;;;;;;15.60;8.77;;;23.30;42.30;;;;;;6177430;28;80859;-71
2023/11/19 06:23:37;;;;;;;13.07;9.13;;;23.30;42.00;;;;;;6177401;28;84227;-65
2023/11/19 06:26:39;;;;;;;13.15;8.95;;;23.30;42.50;;;;;;6172758;28;80900;-66
2023/11/19 06:29:40;;;;;;;12.68;8.70;;;23.30;42.80;;;;;;6177128;28;82025;-66
2023/11/19 06:32:41;;;;;;;11.95;8.40;;;23.30;42.50;;;;;;6172767;28;80443;-62
2023/11/19 06:35:42;;;;;;;10.98;7.90;;;23.20;42.60;;;;;;6178201;28;80249;-70
2023/11/19 06:38:42;;;;;;;11.85;8.98;;;23.20;42.60;;;;;;6176740;28;82608;-72
2023/11/19 06:41:43;;;;;;;12.48;8.35;;;23.20;42.70;;;;;;6176778;28;81274;-64
2023/11/19 06:44:43;;;;;;;14.15;8.88;;;23.20;42.50;;;;;;6177848;28;81720;-67
2023/11/19 06:47:43;;;;;;;16.27;7.32;;;23.20;42.20;;;;;;6176527;28;80818;-66
2023/11/19 06:50:44;;;;;;;26.00;10.32;;;23.30;42.80;;;;;;6178901;28;83755;-63
2023/11/19 06:53:44;;;;;;;32.83;8.50;;;23.20;43.00;;;;;;6174861;28;83225;-64
2023/11/19 06:56:45;;;;;;;18.83;8.98;;;23.20;43.00;;;;;;6177838;28;83036;-64
2023/11/19 06:59:45;;;;;;;24.13;9.98;;;23.20;42.80;;;;;;6177192;28;80373;-66
2023/11/19 07:02:46;;;;;;;25.70;11.00;;;23.20;43.10;;;;;;6173686;28;84906;-63
2023/11/19 07:05:46;;;;;;;30.25;13.25;;;23.20;44.00;;;;;;6173733;28;83845;-64
2023/11/19 07:08:47;;;;;;;39.30;14.90;;;23.20;44.80;;;;;;6174183;28;83355;-63
2023/11/19 07:11:51;;;;;;;31.85;15.13;;;23.20;45.60;;;;;;6174256;28;84144;-63
2023/11/19 07:14:52;;;;;;;34.28;13.70;;;23.30;45.70;;;;;;6174143;28;83520;-67
2023/11/19 07:17:54;;;;;;;31.35;12.48;;;23.30;45.80;;;;;;6174482;28;83146;-66
2023/11/19 07:20:55;;;;;;;27.65;11.63;;;23.30;45.90;;;;;;6174697;28;84052;-65
2023/11/19 07:23:55;;;;;;;26.63;12.30;;;23.30;45.90;;;;;;6175081;28;83178;-67
2023/11/19 07:26:56;;;;;;;34.60;12.52;;;23.30;45.90;;;;;;6174360;28;83497;-66
2023/11/19 07:29:57;;;;;;;26.13;12.07;;;23.30;46.40;;;;;;6174312;28;82985;-70
2023/11/19 07:32:58;;;;;;;24.13;11.40;;;23.30;45.90;;;;;;6166027;28;83157;-70
2023/11/19 07:35:58;;;;;;;23.42;10.93;;;23.30;45.60;;;;;;6172566;28;83492;-67
2023/11/19 07:38:59;;;;;;;26.60;12.13;;;23.20;45.40;;;;;;6169640;28;85414;-75
2023/11/19 07:42:00;;;;;;;22.75;10.43;;;23.20;45.60;;;;;;6170738;28;83953;-76
2023/11/19 07:45:00;;;;;;;23.60;10.23;;;23.30;45.40;;;;;;6173673;28;82893;-70
2023/11/19 07:48:01;;;;;;;20.88;9.55;;;23.30;45.20;;;;;;6142282;28;85493;-66
2023/11/19 07:51:01;;;;;;;22.50;9.55;;;23.30;45.20;;;;;;6152316;28;83489;-65
2023/11/19 07:54:02;;;;;;;23.77;10.82;;;23.30;45.10;;;;;;6156898;28;81780;-68
2023/11/19 07:57:02;;;;;;;17.45;9.32;;;23.30;44.80;;;;;;6148250;28;84313;-64
2023/11/19 08:00:03;;;;;;;18.10;9.48;;;23.30;44.70;;;;;;6152504;28;83288;-64
2023/11/19 08:03:13;;;;;;;17.95;8.70;;;23.30;44.70;;;;;;6153893;28;81400;-67
2023/11/19 08:06:13;;;;;;;17.60;9.05;;;23.20;44.60;;;;;;6152093;28;82317;-63
2023/11/19 08:09:14;;;;;;;14.25;8.00;;;23.30;44.60;;;;;;6150498;28;81192;-63
2023/11/19 08:12:15;;;;;;;15.95;8.48;;;23.30;44.70;;;;;;6155233;28;81724;-63
2023/11/19 08:15:16;;;;;;;15.98;8.00;;;23.30;44.70;;;;;;6152752;28;81021;-64
2023/11/19 08:18:16;;;;;;;14.73;8.48;;;23.30;44.10;;;;;;6149233;28;81945;-64
2023/11/19 08:21:18;;;;;;;12.90;7.50;;;23.30;44.40;;;;;;6155206;28;81665;-60
2023/11/19 08:24:19;;;;;;;16.50;7.93;;;23.20;44.30;;;;;;6153105;28;80832;-63
2023/11/19 08:27:26;;;;;;;13.23;6.97;;;23.30;44.40;;;;;;6146070;28;81873;-65
2023/11/19 08:30:27;;;;;;;12.98;7.30;;;23.30;44.30;;;;;;6154713;28;82371;-64
2023/11/19 08:33:27;;;;;;;13.90;7.40;;;23.30;44.10;;;;;;6154761;28;80765;-64
2023/11/19 08:36:28;;;;;;;11.52;7.03;;;23.30;43.90;;;;;;6155145;28;81215;-63
2023/11/19 08:39:28;;;;;;;12.63;7.30;;;23.30;44.00;;;;;;6150287;28;81433;-70
2023/11/19 08:42:29;;;;;;;12.05;6.68;;;23.30;44.00;;;;;;6155661;28;80935;-64
2023/11/19 08:45:30;;;;;;;12.10;6.60;;;23.30;43.90;;;;;;6156222;28;81676;-64
2023/11/19 08:48:30;;;;;;;12.18;6.50;;;23.30;43.90;;;;;;6146694;28;81762;-66
2023/11/19 08:51:31;;;;;;;16.35;6.90;;;23.30;43.70;;;;;;6155776;28;81138;-64
2023/11/19 08:54:32;;;;;;;10.50;6.65;;;23.30;43.80;;;;;;6155304;28;81502;-64
2023/11/19 08:57:33;;;;;;;10.18;6.53;;;23.40;43.70;;;;;;6145589;28;82885;-64
2023/11/19 09:00:33;;;;;;;11.38;6.47;;;23.40;43.60;;;;;;6155730;28;81960;-67
2023/11/19 09:03:34;;;;;;;10.30;6.60;;;23.40;43.30;;;;;;6155930;28;81444;-65
2023/11/19 09:06:34;;;;;;;10.23;6.22;;;23.40;43.20;;;;;;6154492;28;81266;-71
2023/11/19 09:09:36;;;;;;;12.13;6.05;;;23.50;43.00;;;;;;6149359;28;82287;-64
2023/11/19 09:12:36;;;;;;;10.38;6.97;;;23.40;43.10;;;;;;6149174;28;81775;-63
2023/11/19 09:15:37;;;;;;;16.65;5.93;;;23.50;43.30;;;;;;6156925;28;81208;-63
2023/11/19 09:18:37;;;;;;;11.30;6.22;;;23.50;43.20;;;;;;6149138;28;82187;-64
2023/11/19 09:21:39;;;;;;;9.52;5.53;;;23.50;43.60;;;;;;6152872;28;80918;-63
2023/11/19 09:24:39;;;;;;;11.90;6.70;;;23.60;44.10;;;;;;6156076;28;81684;-65
2023/11/19 09:27:40;;;;;;;8.15;5.40;;;23.60;44.30;;;;;;6148207;28;81991;-63
2023/11/19 09:30:41;;;;;;;8.52;5.78;;;23.60;44.40;;;;;;6157353;28;81292;-63
2023/11/19 09:33:42;;;;;;;8.27;4.95;;;23.60;44.60;;;;;;6156307;28;81989;-62
2023/11/19 09:36:44;;;;;;;11.88;6.22;;;23.60;44.60;;;;;;6156910;28;81392;-68
2023/11/19 09:39:44;;;;;;;8.07;5.50;;;23.60;44.60;;;;;;6125961;28;85729;-68
2023/11/19 09:42:48;;;;;;;8.65;5.82;;;23.70;44.70;;;;;;6154691;28;81691;-66
2023/11/19 09:45:49;;;;;;;11.02;5.90;;;23.70;44.70;;;;;;6157536;28;81703;-68
2023/11/19 09:48:52;;;;;;;7.80;5.30;;;23.70;44.80;;;;;;6150989;28;80780;-66
2023/11/19 09:51:53;;;;;;;8.88;6.28;;;23.70;44.50;;;;;;6154215;28;81546;-66
2023/11/19 09:54:53;;;;;;;9.20;5.93;;;23.70;44.30;;;;;;6157366;28;81956;-64
2023/11/19 09:57:54;;;;;;;8.48;5.35;;;23.70;44.30;;;;;;6165736;28;81951;-63
2023/11/19 10:00:54;;;;;;;10.77;6.00;;;23.70;44.30;;;;;;6176904;28;81462;-67
2023/11/19 10:03:55;;;;;;;8.63;5.82;;;23.70;44.40;;;;;;6174739;28;80396;-64
2023/11/19 10:06:55;;;;;;;8.80;5.78;;;23.80;44.50;;;;;;6177174;28;80442;-65
2023/11/19 10:09:56;;;;;;;11.40;5.60;;;23.80;44.30;;;;;;6173949;28;80956;-64
2023/11/19 10:12:56;;;;;;;9.80;6.60;;;23.80;44.00;;;;;;6172752;28;83385;-63
2023/11/19 10:15:57;;;;;;;8.93;6.57;;;23.80;43.20;;;;;;6178775;28;80447;-71
2023/11/19 10:18:58;;;;;;;11.23;6.75;;;23.70;42.30;;;;;;6180435;28;81474;-68
2023/11/19 10:21:58;;;;;;;9.15;6.40;;;23.80;41.70;;;;;;6177974;28;80472;-64
2023/11/19 10:24:58;;;;;;;10.50;6.80;;;23.80;42.30;;;;;;6173919;28;84269;-63
2023/11/19 10:27:59;;;;;;;8.88;6.30;;;23.70;41.90;;;;;;6180519;28;80456;-62
2023/11/19 10:31:00;;;;;;;10.77;6.35;;;23.80;41.90;;;;;;6179390;28;80361;-65
2023/11/19 10:34:01;;;;;;;8.38;5.95;;;23.80;41.60;;;;;;6180906;28;81044;-63
2023/11/19 10:37:01;;;;;;;10.90;6.60;;;23.70;41.80;;;;;;6166118;28;81186;-64
2023/11/19 10:40:04;;;;;;;10.13;6.25;;;23.80;41.90;;;;;;6177093;28;81073;-63
2023/11/19 10:43:07;;;;;;;11.43;6.60;;;23.80;42.20;;;;;;6180390;28;81796;-62
2023/11/19 10:46:08;;;;;;;9.15;5.97;;;23.80;42.20;;;;;;6179496;28;80863;-64
2023/11/19 10:49:08;;;;;;;9.00;6.00;;;23.80;42.50;;;;;;6179081;28;80498;-65
2023/11/19 10:52:09;;;;;;;8.85;6.10;;;23.80;42.50;;;;;;6179831;28;80547;-64
2023/11/19 10:55:09;;;;;;;8.05;5.85;;;23.80;43.20;;;;;;6166675;28;80389;-64
2023/11/19 10:58:10;;;;;;;8.98;6.07;;;23.80;42.80;;;;;;6176152;28;81419;-60
2023/11/19 11:01:10;;;;;;;7.60;6.07;;;23.70;43.00;;;;;;6177947;28;82934;-65
2023/11/19 11:04:11;;;;;;;12.02;6.47;;;23.70;42.70;;;;;;6174208;28;80177;-62
2023/11/19 11:07:12;;;;;;;9.52;6.03;;;23.70;42.50;;;;;;6174774;28;81039;-64
2023/11/19 11:10:12;;;;;;;8.20;6.22;;;23.70;42.70;;;;;;6177084;28;81098;-66
2023/11/19 11:13:13;;;;;;;9.55;6.10;;;23.60;42.90;;;;;;6176634;28;80299;-63
2023/11/19 11:16:13;;;;;;;10.10;5.80;;;23.60;43.20;;;;;;6177800;28;80832;-66
2023/11/19 11:19:14;;;;;;;9.43;5.88;;;23.60;43.40;;;;;;6176884;28;80896;-67
2023/11/19 11:22:15;;;;;;;10.13;6.65;;;23.70;43.80;;;;;;6176792;28;80414;-65
2023/11/19 11:25:16;;;;;;;8.52;5.65;;;23.70;43.90;;;;;;6175383;28;81316;-65
2023/11/19 11:28:17;;;;;;;9.70;5.07;;;23.60;43.60;;;;;;6176228;28;80820;-61
2023/11/19 11:31:20;;;;;;;7.75;5.32;;;23.60;43.60;;;;;;6172623;28;81283;-64
2023/11/19 11:34:21;;;;;;;12.52;6.70;;;23.60;43.40;;;;;;6171724;28;83812;-62
2023/11/19 11:37:23;;;;;;;8.05;5.68;;;23.60;43.20;;;;;;6174695;28;80301;-61
2023/11/19 11:40:26;;;;;;;11.05;5.40;;;23.60;43.20;;;;;;6178093;28;80464;-64
2023/11/19 11:43:26;;;;;;;12.68;5.72;;;23.60;43.40;;;;;;6174263;28;80459;-64
2023/11/19 11:46:27;;;;;;;10.13;5.07;;;23.50;43.20;;;;;;6177696;28;80595;-64
2023/11/19 11:49:28;;;;;;;6.05;4.57;;;23.50;43.20;;;;;;6177026;28;80387;-64
2023/11/19 11:52:30;;;;;;;9.50;5.20;;;23.50;42.90;;;;;;6169614;28;80402;-64
2023/11/19 11:55:30;;;;;;;7.68;5.32;;;23.40;42.90;;;;;;6175179;28;80889;-65
2023/11/19 11:58:31;;;;;;;6.45;5.00;;;23.40;42.70;;;;;;6176268;28;80592;-66
2023/11/19 12:01:31;;;;;;;8.35;5.43;;;23.40;42.80;;;;;;6176978;28;80739;-65
2023/11/19 12:04:32;;;;;;;8.88;5.18;;;23.40;42.80;;;;;;6177642;28;80969;-66
2023/11/19 12:07:33;;;;;;;8.98;4.88;;;23.40;42.60;;;;;;6176989;28;82737;-64
2023/11/19 12:10:33;;;;;;;8.68;4.60;;;23.30;42.70;;;;;;6176156;28;81028;-65
2023/11/19 12:13:36;;;;;;;8.02;4.90;;;23.30;42.90;;;;;;6175811;28;84887;-65
2023/11/19 12:16:38;;;;;;;8.57;4.90;;;23.30;42.90;;;;;;6175071;28;80523;-67
2023/11/19 12:19:38;;;;;;;9.07;5.15;;;23.30;43.40;;;;;;6176496;28;80618;-63
2023/11/19 12:22:39;;;;;;;8.02;5.40;;;23.30;42.60;;;;;;6174940;28;81658;-60
2023/11/19 12:25:39;;;;;;;6.50;4.32;;;23.30;42.70;;;;;;6176255;28;80655;-63
2023/11/19 12:28:40;;;;;;;8.40;4.72;;;23.30;43.40;;;;;;6177073;28;81575;-60
2023/11/19 12:31:41;;;;;;;7.97;4.97;;;23.30;42.80;;;;;;6164257;28;80371;-60
2023/11/19 12:34:41;;;;;;;8.07;4.65;;;23.20;43.00;;;;;;6175952;28;81525;-64
2023/11/19 12:37:42;;;;;;;8.40;4.45;;;23.30;43.40;;;;;;6163633;28;80580;-61
2023/11/19 12:40:42;;;;;;;8.10;4.38;;;23.20;43.90;;;;;;6174416;28;80608;-55
2023/11/19 12:43:43;;;;;;;7.05;4.85;;;23.30;43.70;;;;;;6171722;28;81384;-60
2023/11/19 12:46:43;;;;;;;5.60;4.05;;;23.30;43.90;;;;;;6172702;28;80674;-60
2023/11/19 12:49:44;;;;;;;7.22;3.70;;;23.30;43.70;;;;;;6169374;28;80357;-59
2023/11/19 12:52:44;;;;;;;6.18;4.38;;;23.30;43.70;;;;;;6173314;28;86715;-60
2023/11/19 12:55:45;;;;;;;6.15;3.78;;;23.30;43.90;;;;;;6175262;28;80097;-63
2023/11/19 12:58:45;;;;;;;5.22;3.72;;;23.30;43.80;;;;;;6173413;28;81036;-60
2023/11/19 13:01:46;;;;;;;5.95;3.88;;;23.30;43.80;;;;;;6169727;28;80732;-61
2023/11/19 13:04:46;;;;;;;6.10;3.83;;;23.30;43.80;;;;;;6167445;28;80359;-64
2023/11/19 13:07:47;;;;;;;8.52;4.15;;;23.30;43.90;;;;;;6174068;28;80380;-60
2023/11/19 13:10:48;;;;;;;7.05;3.08;;;23.30;45.30;;;;;;6173102;28;81212;-59
2023/11/19 13:13:48;;;;;;;5.10;2.63;;;23.10;44.40;;;;;;6173320;28;80408;-59
2023/11/19 13:16:49;;;;;;;4.43;2.97;;;23.00;44.80;;;;;;6170908;28;81814;-66
2023/11/19 13:19:50;;;;;;;4.47;2.28;;;23.00;45.10;;;;;;6167972;28;85723;-70
2023/11/19 13:22:51;;;;;;;2.08;1.83;;;23.00;45.20;;;;;;6175122;28;80484;-68
2023/11/19 13:25:52;;;;;;;2.45;1.90;;;22.90;45.10;;;;;;6173911;28;80779;-66
2023/11/19 13:28:52;;;;;;;2.67;1.92;;;22.90;45.00;;;;;;6175572;28;81025;-66
2023/11/19 13:31:53;;;;;;;4.07;1.73;;;22.80;44.80;;;;;;6169192;28;81711;-69
2023/11/19 13:34:54;;;;;;;2.97;2.05;;;22.90;44.70;;;;;;6168290;28;81716;-59
2023/11/19 13:37:54;;;;;;;2.80;2.13;;;23.00;44.70;;;;;;6175516;28;80330;-61
2023/11/19 13:40:55;;;;;;;2.60;2.30;;;23.10;45.00;;;;;;6159101;28;83091;-61
2023/11/19 13:43:55;;;;;;;3.65;2.58;;;23.20;45.50;;;;;;6176541;28;80209;-66
2023/11/19 13:46:56;;;;;;;3.55;2.70;;;23.30;45.40;;;;;;6176628;28;83204;-61
2023/11/19 13:49:56;;;;;;;3.40;2.35;;;23.40;45.30;;;;;;6177530;28;80288;-59
2023/11/19 13:52:57;;;;;;;4.18;2.83;;;23.40;45.20;;;;;;6173522;28;80821;-66
2023/11/19 13:55:57;;;;;;;5.60;2.67;;;23.50;45.20;;;;;;6173373;28;81242;-63
2023/11/19 13:58:58;;;;;;;9.20;3.05;;;23.50;45.20;;;;;;6176088;28;80511;-67
2023/11/19 14:01:58;;;;;;;4.32;2.95;;;23.50;45.10;;;;;;6179970;28;81311;-63
2023/11/19 14:04:59;;;;;;;8.23;3.05;;;23.60;45.50;;;;;;6180364;28;81944;-62
2023/11/19 14:08:01;;;;;;;4.70;2.90;;;23.60;45.40;;;;;;6181405;28;80312;-59
2023/11/19 14:11:01;;;;;;;4.53;2.60;;;23.60;45.70;;;;;;6177166;28;81878;-66
2023/11/19 14:14:02;;;;;;;12.32;3.58;;;23.60;45.80;;;;;;6180847;28;80165;-62
2023/11/19 14:17:03;;;;;;;8.30;3.72;;;23.60;45.90;;;;;;6180073;28;81807;-62
2023/11/19 14:20:13;;;;;;;7.90;3.28;;;23.70;45.90;;;;;;6180608;28;80320;-60
2023/11/19 14:23:13;;;;;;;4.28;2.80;;;23.70;45.90;;;;;;6181216;28;80498;-62
2023/11/19 14:26:14;;;;;;;7.45;3.08;;;23.70;46.00;;;;;;6177224;28;80304;-62
2023/11/19 14:29:14;;;;;;;4.38;3.00;;;23.70;46.00;;;;;;6168362;28;80374;-60
2023/11/19 14:32:15;;;;;;;4.95;2.70;;;23.80;47.10;;;;;;6179050;28;81539;-62
2023/11/19 14:35:15;;;;;;;9.48;3.30;;;23.80;46.90;;;;;;6178457;28;81673;-61
2023/11/19 14:38:16;;;;;;;7.32;3.40;;;23.80;47.30;;;;;;6175403;28;81196;-62
2023/11/19 14:41:17;;;;;;;9.13;3.67;;;23.70;46.70;;;;;;6178416;28;80546;-64
2023/11/19 14:44:19;;;;;;;6.25;3.10;;;23.70;46.30;;;;;;6178241;28;80302;-64
2023/11/19 14:47:20;;;;;;;7.72;2.90;;;23.80;46.20;;;;;;6179349;28;80907;-65
2023/11/19 14:50:20;;;;;;;6.90;3.40;;;23.70;45.80;;;;;;6178067;28;81969;-61
2023/11/19 14:53:22;;;;;;;6.18;3.47;;;23.80;45.60;;;;;;6170404;28;80673;-70
2023/11/19 14:56:22;;;;;;;6.47;3.92;;;23.70;45.50;;;;;;6167849;28;80534;-65
2023/11/19 14:59:23;;;;;;;8.25;3.60;;;23.70;45.40;;;;;;6171114;28;80473;-65
2023/11/19 15:02:23;;;;;;;4.88;3.72;;;23.70;45.20;;;;;;6176657;28;81483;-62
2023/11/19 15:05:24;;;;;;;7.00;3.70;;;23.70;45.20;;;;;;6178051;28;80658;-62
2023/11/19 15:08:24;;;;;;;7.38;4.05;;;23.70;45.80;;;;;;6177705;28;80962;-74
2023/11/19 15:11:25;;;;;;;6.07;3.55;;;23.70;46.00;;;;;;6178221;28;81318;-64
2023/11/19 15:14:25;;;;;;;5.45;3.63;;;23.70;46.00;;;;;;6175353;28;82206;-71
2023/11/19 15:17:26;;;;;;;5.82;3.92;;;23.70;45.90;;;;;;6178084;28;80393;-67
2023/11/19 15:20:29;;;;;;;5.75;4.18;;;23.70;46.20;;;;;;6178589;28;80888;-68
2023/11/19 15:23:30;;;;;;;8.13;4.18;;;23.70;46.10;;;;;;6177482;28;81550;-65
2023/11/19 15:26:30;;;;;;;5.80;3.90;;;23.70;46.10;;;;;;6176977;28;80983;-69
2023/11/19 15:29:34;;;;;;;5.88;4.00;;;23.70;46.10;;;;;;6176236;28;81176;-70
2023/11/19 15:32:35;;;;;;;7.85;4.57;;;23.70;45.90;;;;;;6177608;28;80529;-73